Time;durP1;ratioP1;P1;durP2;ratioP2;P2;SDS_P1;SDS_P2;PMS_P1;PMS_P2;Temp;Humidity;BMP_temperature;BMP_pressure;BME280_temperature;BME280_humidity;BME280_pressure;Samples;Min_cycle;Max_cycle;Signal;HPM_P1;HPM_P2
2021/12/15 00:00:22;;;;;;;28.30;16.10;;;8.30;99.90;;;;;;5053702;28;20210;-75
2021/12/15 00:02:51;;;;;;;24.73;15.10;;;8.30;99.90;;;;;;5053990;28;20245;-77
2021/12/15 00:05:22;;;;;;;27.00;15.83;;;8.30;99.90;;;;;;5071876;28;20172;-77
2021/12/15 00:07:56;;;;;;;24.87;16.00;;;8.30;99.90;;;;;;5053921;28;20171;-77
2021/12/15 00:10:24;;;;;;;26.80;15.77;;;8.30;99.90;;;;;;5058002;28;20206;-79
2021/12/15 00:12:51;;;;;;;24.50;15.77;;;8.30;99.90;;;;;;5060917;28;20670;-78
2021/12/15 00:15:18;;;;;;;23.07;15.07;;;8.30;99.90;;;;;;5081287;28;20358;-77
2021/12/15 00:17:44;;;;;;;25.67;15.00;;;8.30;99.90;;;;;;5075363;28;20179;-76
2021/12/15 00:20:14;;;;;;;24.73;15.17;;;8.30;99.90;;;;;;5056739;28;20213;-76
2021/12/15 00:22:41;;;;;;;23.40;14.50;;;8.30;99.90;;;;;;5074962;28;20191;-76
2021/12/15 00:25:09;;;;;;;23.87;14.67;;;8.30;99.90;;;;;;5074958;28;20680;-76
2021/12/15 00:27:36;;;;;;;21.93;13.33;;;8.30;99.90;;;;;;5074899;28;20209;-76
2021/12/15 00:30:04;;;;;;;22.93;14.07;;;8.30;99.90;;;;;;5056728;28;20561;-76
2021/12/15 00:32:29;;;;;;;23.63;14.70;;;8.30;99.90;;;;;;5059798;28;20230;-76
2021/12/15 00:34:55;;;;;;;21.57;13.93;;;8.30;99.90;;;;;;5074905;28;20182;-77
2021/12/15 00:37:21;;;;;;;21.73;14.00;;;8.30;99.90;;;;;;5075273;28;20197;-76
2021/12/15 00:39:47;;;;;;;20.33;13.63;;;8.30;99.90;;;;;;5038956;28;1040612;-76
2021/12/15 00:42:13;;;;;;;19.50;13.27;;;8.30;99.90;;;;;;5076140;28;20182;-76
2021/12/15 00:44:39;;;;;;;23.17;14.90;;;8.30;99.90;;;;;;5058947;28;20190;-76
2021/12/15 00:47:05;;;;;;;23.83;13.93;;;8.30;99.90;;;;;;5057961;28;20186;-77
2021/12/15 00:49:32;;;;;;;30.17;15.17;;;8.30;99.90;;;;;;5075448;28;20210;-75
2021/12/15 00:51:57;;;;;;;22.53;13.90;;;8.30;99.90;;;;;;5057958;28;20194;-78
2021/12/15 00:54:23;;;;;;;22.40;14.10;;;8.30;99.90;;;;;;5077264;28;20191;-76
2021/12/15 00:56:54;;;;;;;22.77;13.73;;;8.30;99.90;;;;;;5075711;28;20241;-76
2021/12/15 00:59:21;;;;;;;24.63;13.70;;;8.30;99.90;;;;;;5079200;28;20209;-78
2021/12/15 01:01:48;;;;;;;27.70;15.37;;;8.30;99.90;;;;;;5076142;28;20187;-78
2021/12/15 01:04:16;;;;;;;21.53;13.60;;;8.40;99.90;;;;;;5077185;28;20207;-78
2021/12/15 01:06:44;;;;;;;20.77;14.27;;;8.30;99.90;;;;;;5077876;28;20551;-77
2021/12/15 01:09:19;;;;;;;23.13;14.40;;;8.30;99.90;;;;;;5075150;28;20207;-76
2021/12/15 01:20:06;;;;;;;23.67;13.90;;;8.40;99.90;;;;;;5078801;28;20217;-79
2021/12/15 01:22:36;;;;;;;26.33;14.53;;;8.30;99.90;;;;;;5077223;28;20614;-76
2021/12/15 01:25:13;;;;;;;20.10;14.67;;;8.40;99.90;;;;;;5057054;28;20187;-76
2021/12/15 01:27:39;;;;;;;25.97;14.17;;;8.30;99.90;;;;;;5075137;28;20174;-77
2021/12/15 01:30:07;;;;;;;20.83;13.97;;;8.40;99.90;;;;;;5076333;28;20219;-76
2021/12/15 01:32:33;;;;;;;23.27;14.43;;;8.30;99.90;;;;;;5060998;28;20187;-78
2021/12/15 01:34:58;;;;;;;21.87;14.83;;;8.30;99.90;;;;;;5061254;28;20201;-78
2021/12/15 01:37:24;;;;;;;21.53;14.07;;;8.30;99.90;;;;;;5060157;28;20281;-78
2021/12/15 01:39:54;;;;;;;22.37;14.23;;;8.40;99.90;;;;;;5060210;28;20222;-78
2021/12/15 01:42:20;;;;;;;23.00;14.70;;;8.40;99.90;;;;;;5078090;28;20175;-78
2021/12/15 01:47:30;;;;;;;21.50;14.27;;;8.30;99.90;;;;;;5079578;28;20639;-78
2021/12/15 01:49:56;;;;;;;23.17;14.70;;;8.30;99.90;;;;;;5056792;28;20215;-76
2021/12/15 01:52:27;;;;;;;21.23;13.67;;;8.40;99.90;;;;;;5074516;28;20229;-76
2021/12/15 01:54:59;;;;;;;24.03;13.87;;;8.40;99.90;;;;;;5076217;28;20214;-75
2021/12/15 01:57:29;;;;;;;21.40;14.17;;;8.40;99.90;;;;;;5057749;28;20183;-78
2021/12/15 01:59:56;;;;;;;22.13;13.83;;;8.40;99.90;;;;;;5078749;28;20295;-78
2021/12/15 02:02:23;;;;;;;20.10;13.33;;;8.30;99.90;;;;;;5060551;28;20186;-78
2021/12/15 02:04:49;;;;;;;23.10;13.90;;;8.30;99.90;;;;;;5078673;28;20194;-78
2021/12/15 02:07:18;;;;;;;20.70;13.63;;;8.40;99.90;;;;;;5056885;28;20332;-76
2021/12/15 02:12:15;;;;;;;20.17;13.50;;;8.40;99.90;;;;;;5074336;28;20244;-76
2021/12/15 02:14:42;;;;;;;20.00;12.80;;;8.40;99.90;;;;;;5074044;28;20171;-76
2021/12/15 02:17:07;;;;;;;20.47;13.30;;;8.30;99.90;;;;;;5074219;28;20253;-79
2021/12/15 02:19:33;;;;;;;19.00;13.97;;;8.40;99.90;;;;;;5059164;28;20230;-78
2021/12/15 02:21:59;;;;;;;21.67;13.77;;;8.40;99.90;;;;;;5060184;28;20182;-78
2021/12/15 02:24:26;;;;;;;21.20;14.10;;;8.30;99.90;;;;;;5078367;28;20195;-78
2021/12/15 02:26:58;;;;;;;19.63;13.20;;;8.30;99.90;;;;;;5059527;28;20652;-79
2021/12/15 02:29:24;;;;;;;20.27;14.03;;;8.30;99.90;;;;;;5059247;28;20289;-78
2021/12/15 02:31:59;;;;;;;17.73;12.93;;;8.40;99.90;;;;;;5077241;28;20171;-76
2021/12/15 02:37:20;;;;;;;23.07;14.13;;;8.30;99.90;;;;;;5074198;28;20253;-79
2021/12/15 02:39:51;;;;;;;19.43;12.93;;;8.40;99.90;;;;;;5074194;28;20635;-78
2021/12/15 02:42:17;;;;;;;18.57;13.33;;;8.30;99.90;;;;;;5073409;28;20220;-76
2021/12/15 02:44:45;;;;;;;22.17;13.57;;;8.40;99.90;;;;;;5055625;28;20189;-77
2021/12/15 02:47:19;;;;;;;21.60;14.47;;;8.40;99.90;;;;;;5073488;28;20262;-76
2021/12/15 02:49:45;;;;;;;24.57;14.00;;;8.40;99.90;;;;;;5073001;28;20251;-76
2021/12/15 02:52:11;;;;;;;22.30;14.60;;;8.40;99.90;;;;;;5055463;28;20278;-76
2021/12/15 02:54:37;;;;;;;22.70;14.17;;;8.30;99.90;;;;;;5055397;28;20285;-76
2021/12/15 02:57:07;;;;;;;20.50;14.03;;;8.40;99.90;;;;;;5073269;28;20179;-76
2021/12/15 02:59:48;;;;;;;25.30;15.13;;;8.40;99.90;;;;;;5072966;28;20203;-76
2021/12/15 03:02:35;;;;;;;23.33;14.67;;;8.30;99.90;;;;;;5055078;28;20175;-76
2021/12/15 03:05:17;;;;;;;21.80;14.67;;;8.30;99.90;;;;;;5072937;28;20621;-76
2021/12/15 03:08:00;;;;;;;24.70;15.63;;;8.30;99.90;;;;;;5055388;28;20194;-77
2021/12/15 03:15:54;;;;;;;22.60;14.07;;;8.40;99.90;;;;;;5073443;28;20221;-76
2021/12/15 03:18:23;;;;;;;25.67;15.67;;;8.40;99.90;;;;;;5073135;28;20182;-76
2021/12/15 03:20:54;;;;;;;21.40;14.63;;;8.40;99.90;;;;;;5072846;28;20690;-76
2021/12/15 03:23:52;;;;;;;25.27;15.33;;;8.40;99.90;;;;;;5073009;28;20644;-75
2021/12/15 03:26:30;;;;;;;24.57;14.67;;;8.40;99.90;;;;;;5073030;28;20171;-76
2021/12/15 03:39:30;;;;;;;27.87;16.03;;;8.40;99.90;;;;;;5072556;28;20715;-77
2021/12/15 03:42:01;;;;;;;24.07;14.50;;;8.40;99.90;;;;;;5054934;28;20221;-77
2021/12/15 03:44:28;;;;;;;27.87;15.30;;;8.40;99.90;;;;;;5073203;28;20194;-77
2021/12/15 03:46:54;;;;;;;25.93;15.37;;;8.40;99.90;;;;;;5076387;28;20179;-78
2021/12/15 03:49:20;;;;;;;27.90;15.53;;;8.40;99.90;;;;;;5078299;28;20298;-76
2021/12/15 03:51:46;;;;;;;27.03;15.23;;;8.40;99.90;;;;;;5076799;28;20221;-76
2021/12/15 03:54:12;;;;;;;27.40;16.07;;;8.40;99.90;;;;;;5076685;28;20194;-76
2021/12/15 03:56:40;;;;;;;28.13;15.73;;;8.40;99.90;;;;;;5058798;28;20194;-76
2021/12/15 03:59:07;;;;;;;29.90;16.10;;;8.50;99.90;;;;;;5076397;28;20660;-76
2021/12/15 04:01:33;;;;;;;31.47;16.30;;;8.50;99.90;;;;;;5076726;28;20253;-76
2021/12/15 04:03:59;;;;;;;27.07;16.17;;;8.50;99.90;;;;;;5058718;28;20344;-76
2021/12/15 04:06:39;;;;;;;27.27;15.47;;;8.50;99.90;;;;;;5076520;28;20285;-76
2021/12/15 04:09:07;;;;;;;28.40;16.10;;;8.50;99.90;;;;;;5058233;28;20221;-77
2021/12/15 04:11:34;;;;;;;28.67;15.40;;;8.50;99.90;;;;;;5058532;28;20268;-77
2021/12/15 04:14:02;;;;;;;29.33;15.63;;;8.50;99.90;;;;;;5076407;28;20236;-76
2021/12/15 04:18:59;;;;;;;32.67;17.13;;;8.50;99.90;;;;;;5076234;28;20294;-76
2021/12/15 04:21:25;;;;;;;27.80;16.80;;;8.50;99.90;;;;;;5058299;28;20187;-75
2021/12/15 04:23:53;;;;;;;29.30;17.63;;;8.50;99.90;;;;;;5076085;28;20272;-76
2021/12/15 04:26:20;;;;;;;29.07;16.23;;;8.50;99.90;;;;;;5076087;28;20182;-77
2021/12/15 04:28:45;;;;;;;29.67;16.70;;;8.50;99.90;;;;;;5057679;28;20644;-76
2021/12/15 04:31:15;;;;;;;26.37;15.97;;;8.50;99.90;;;;;;5076072;28;20233;-76
2021/12/15 04:33:50;;;;;;;28.03;16.53;;;8.50;99.90;;;;;;5058053;28;20214;-76
2021/12/15 04:36:17;;;;;;;32.97;17.00;;;8.50;99.90;;;;;;5058003;28;20217;-76
2021/12/15 04:38:44;;;;;;;29.13;16.07;;;8.50;99.90;;;;;;5057699;28;20278;-76
2021/12/15 04:41:14;;;;;;;29.90;17.17;;;8.50;99.90;;;;;;5075536;28;20207;-76
2021/12/15 04:43:40;;;;;;;29.53;15.93;;;8.50;99.90;;;;;;5057764;28;20301;-75
2021/12/15 04:46:09;;;;;;;28.47;17.40;;;8.50;99.90;;;;;;5075777;28;20521;-76
2021/12/15 04:48:38;;;;;;;26.20;15.63;;;8.50;99.90;;;;;;5075662;28;20175;-76
2021/12/15 04:51:04;;;;;;;27.70;16.40;;;8.50;99.90;;;;;;5037781;28;20246;-76
2021/12/15 04:53:30;;;;;;;27.47;16.17;;;8.50;99.90;;;;;;5055684;28;20211;-76
2021/12/15 04:55:55;;;;;;;27.07;15.10;;;8.50;99.90;;;;;;5055574;28;20653;-76
2021/12/15 04:58:21;;;;;;;27.10;16.10;;;8.50;99.90;;;;;;5036320;28;20186;-77
2021/12/15 05:00:55;;;;;;;25.67;15.80;;;8.50;99.90;;;;;;5073330;28;20594;-77
2021/12/15 05:03:21;;;;;;;28.27;16.23;;;8.50;99.90;;;;;;5075726;28;20183;-76
2021/12/15 05:05:47;;;;;;;23.40;13.87;;;8.50;99.90;;;;;;5075407;28;20186;-76
2021/12/15 05:08:13;;;;;;;22.07;13.90;;;8.50;99.90;;;;;;5075406;28;20254;-76
2021/12/15 05:10:39;;;;;;;24.17;14.97;;;8.50;99.90;;;;;;5057051;28;20229;-76
2021/12/15 05:13:06;;;;;;;25.73;15.13;;;8.50;99.90;;;;;;5075215;28;20174;-76
2021/12/15 05:15:33;;;;;;;26.73;15.37;;;8.50;99.90;;;;;;5075190;28;20190;-76
2021/12/15 05:17:58;;;;;;;23.73;14.50;;;8.50;99.90;;;;;;5075162;28;20241;-77
2021/12/15 05:20:25;;;;;;;25.90;15.73;;;8.50;99.90;;;;;;5074813;28;20213;-76
2021/12/15 05:22:51;;;;;;;25.00;14.90;;;8.50;99.90;;;;;;5075035;28;20638;-77
2021/12/15 05:25:17;;;;;;;23.73;14.47;;;8.50;99.90;;;;;;5075043;28;20648;-76
2021/12/15 05:27:43;;;;;;;25.87;14.43;;;8.50;99.90;;;;;;5073683;28;20206;-77
2021/12/15 05:30:12;;;;;;;22.03;14.20;;;8.50;99.90;;;;;;5074924;28;20222;-76
2021/12/15 05:32:38;;;;;;;22.67;14.67;;;8.50;99.90;;;;;;5078613;28;20277;-76
2021/12/15 05:35:06;;;;;;;26.17;14.30;;;8.50;99.90;;;;;;5082083;28;20600;-76
2021/12/15 05:37:32;;;;;;;22.57;14.13;;;8.50;99.90;;;;;;5074861;28;20175;-75
2021/12/15 05:40:00;;;;;;;24.10;15.53;;;8.50;99.90;;;;;;5090672;23;20239;-84
2021/12/15 05:42:27;;;;;;;22.40;15.03;;;8.50;99.90;;;;;;5055515;28;20262;-83
2021/12/15 05:44:53;;;;;;;25.17;14.40;;;8.50;99.90;;;;;;5037705;28;20225;-84
2021/12/15 05:47:20;;;;;;;24.70;14.53;;;8.50;99.90;;;;;;5055686;28;20713;-84
2021/12/15 05:49:48;;;;;;;22.43;14.67;;;8.50;99.90;;;;;;5054073;28;20203;-83
2021/12/15 05:52:14;;;;;;;22.93;14.43;;;8.50;99.90;;;;;;5055452;28;20663;-83
2021/12/15 05:54:40;;;;;;;23.27;14.50;;;8.50;99.90;;;;;;5055867;28;20545;-83
2021/12/15 05:57:06;;;;;;;22.47;14.77;;;8.50;99.90;;;;;;5037948;28;20188;-83
2021/12/15 05:59:31;;;;;;;21.67;14.00;;;8.50;99.90;;;;;;5038544;28;20187;-80
2021/12/15 06:01:57;;;;;;;23.63;14.10;;;8.50;99.90;;;;;;5055664;28;20554;-80
2021/12/15 06:04:23;;;;;;;21.47;14.33;;;8.50;99.90;;;;;;5037483;28;20676;-80
2021/12/15 06:06:48;;;;;;;22.90;14.50;;;8.50;99.90;;;;;;5037468;28;20680;-80
2021/12/15 06:09:14;;;;;;;22.00;14.23;;;8.50;99.90;;;;;;5054820;28;20234;-80
2021/12/15 06:11:42;;;;;;;24.70;13.90;;;8.50;99.90;;;;;;5054863;28;20175;-80
2021/12/15 06:14:08;;;;;;;23.43;14.43;;;8.50;99.90;;;;;;5055170;28;20692;-80
2021/12/15 06:16:35;;;;;;;23.53;13.83;;;8.50;99.90;;;;;;5037277;28;20194;-79
2021/12/15 06:19:02;;;;;;;24.23;14.27;;;8.50;99.90;;;;;;5055261;28;20246;-79
2021/12/15 06:21:28;;;;;;;20.17;12.90;;;8.50;99.90;;;;;;5055009;28;20218;-80
2021/12/15 06:23:54;;;;;;;20.90;13.43;;;8.50;99.90;;;;;;5036886;28;20230;-80
2021/12/15 06:26:20;;;;;;;19.37;13.10;;;8.50;99.90;;;;;;5055337;28;20637;-80
2021/12/15 06:28:47;;;;;;;22.90;13.97;;;8.50;99.90;;;;;;5054746;28;20175;-80
2021/12/15 06:31:15;;;;;;;20.63;13.53;;;8.50;99.90;;;;;;5054574;28;20207;-80
2021/12/15 06:33:42;;;;;;;19.83;13.47;;;8.50;99.90;;;;;;5054969;28;20187;-79
2021/12/15 06:36:09;;;;;;;18.27;13.87;;;8.50;99.90;;;;;;5055235;28;20255;-81
2021/12/15 06:38:45;;;;;;;21.50;13.87;;;8.50;99.90;;;;;;5036444;28;20206;-81
2021/12/15 06:41:12;;;;;;;21.87;14.63;;;8.50;99.90;;;;;;5054160;28;20211;-81
2021/12/15 06:43:39;;;;;;;22.57;14.47;;;8.50;99.90;;;;;;5054121;28;20188;-81
2021/12/15 06:59:29;;;;;;;20.47;13.43;;;8.50;99.90;;;;;;5054495;28;20366;-81
2021/12/15 07:01:54;;;;;;;24.00;14.17;;;8.50;99.90;;;;;;5054006;28;20270;-81
2021/12/15 07:04:22;;;;;;;21.07;13.53;;;8.50;99.90;;;;;;5035816;28;20207;-81
2021/12/15 07:06:50;;;;;;;22.97;14.07;;;8.40;99.90;;;;;;5035983;28;20187;-80
2021/12/15 07:09:16;;;;;;;20.93;14.23;;;8.50;99.90;;;;;;5053797;28;20679;-81
2021/12/15 07:11:43;;;;;;;22.33;15.00;;;8.50;99.90;;;;;;5035862;28;20182;-80
2021/12/15 07:14:09;;;;;;;21.47;14.17;;;8.50;99.90;;;;;;5053946;28;20180;-80
2021/12/15 07:16:40;;;;;;;19.93;13.70;;;8.50;99.90;;;;;;5035992;28;20554;-80
2021/12/15 07:19:10;;;;;;;22.27;14.30;;;8.50;99.90;;;;;;5035807;28;20267;-81
2021/12/15 07:21:40;;;;;;;21.07;15.13;;;8.50;99.90;;;;;;5034718;28;20211;-80
2021/12/15 07:24:06;;;;;;;21.57;14.53;;;8.40;99.90;;;;;;5035515;28;20207;-80
2021/12/15 07:26:33;;;;;;;22.30;14.60;;;8.50;99.90;;;;;;5053493;28;20310;-80
2021/12/15 07:28:59;;;;;;;22.90;15.03;;;8.40;99.90;;;;;;5053571;28;20172;-80
2021/12/15 07:31:24;;;;;;;24.17;15.57;;;8.50;99.90;;;;;;5035794;28;20200;-80
2021/12/15 07:33:50;;;;;;;22.63;14.93;;;8.40;99.90;;;;;;5036113;28;20646;-80
2021/12/15 07:36:16;;;;;;;24.17;15.53;;;8.50;99.90;;;;;;5055921;28;20183;-80
2021/12/15 07:38:42;;;;;;;27.27;16.60;;;8.50;99.90;;;;;;5037933;28;20211;-80
2021/12/15 07:41:19;;;;;;;24.57;15.87;;;8.50;99.90;;;;;;5055719;28;20588;-80
2021/12/15 07:43:44;;;;;;;28.27;16.63;;;8.50;99.90;;;;;;5056486;28;20601;-80
2021/12/15 07:46:10;;;;;;;27.70;17.13;;;8.50;99.90;;;;;;5037802;28;20182;-80
2021/12/15 07:48:36;;;;;;;26.20;16.70;;;8.50;99.90;;;;;;5055410;28;20175;-80
2021/12/15 07:51:05;;;;;;;31.90;16.67;;;8.50;99.90;;;;;;5056012;28;20692;-80
2021/12/15 07:53:30;;;;;;;25.13;15.30;;;8.50;99.90;;;;;;5037412;28;20187;-80
2021/12/15 07:55:56;;;;;;;25.67;15.57;;;8.50;99.90;;;;;;5055956;28;20182;-80
2021/12/15 07:58:24;;;;;;;26.27;16.00;;;8.50;99.90;;;;;;5056181;28;20187;-80
2021/12/15 08:00:51;;;;;;;26.27;16.10;;;8.50;99.90;;;;;;5055809;28;20192;-80
2021/12/15 08:03:16;;;;;;;24.90;15.53;;;8.50;99.90;;;;;;5056969;28;20566;-80
2021/12/15 08:05:44;;;;;;;26.20;15.53;;;8.50;99.90;;;;;;5055889;28;20176;-82
2021/12/15 08:08:10;;;;;;;24.27;15.80;;;8.50;99.90;;;;;;5053726;28;20184;-83
2021/12/15 08:10:36;;;;;;;24.63;16.30;;;8.50;99.90;;;;;;5053581;28;20213;-83
2021/12/15 08:13:02;;;;;;;29.30;16.53;;;8.50;99.90;;;;;;5053871;28;20641;-83
2021/12/15 08:15:28;;;;;;;27.87;17.10;;;8.50;99.90;;;;;;5035639;28;20283;-83
2021/12/15 08:17:54;;;;;;;27.40;17.23;;;8.50;99.90;;;;;;5053414;28;20258;-83
2021/12/15 08:20:24;;;;;;;27.07;15.53;;;8.50;99.90;;;;;;5035644;28;20290;-83
2021/12/15 08:22:49;;;;;;;25.43;16.27;;;8.50;99.90;;;;;;5035835;28;20199;-82
2021/12/15 08:25:17;;;;;;;25.53;16.07;;;8.50;99.90;;;;;;5035736;28;20180;-83
2021/12/15 08:27:44;;;;;;;24.60;15.97;;;8.60;99.90;;;;;;5053703;28;20707;-82
2021/12/15 08:30:19;;;;;;;28.60;16.27;;;8.50;99.90;;;;;;5053363;28;20222;-82
2021/12/15 08:32:50;;;;;;;24.10;16.47;;;8.50;99.90;;;;;;5037557;28;20597;-83
2021/12/15 08:35:18;;;;;;;24.90;15.80;;;8.50;99.90;;;;;;5039404;28;20198;-83
2021/12/15 08:37:44;;;;;;;25.00;16.10;;;8.60;99.90;;;;;;5041358;28;20180;-80
2021/12/15 08:40:11;;;;;;;23.73;16.23;;;8.60;99.90;;;;;;5059115;28;20230;-83
2021/12/15 08:42:37;;;;;;;23.87;16.20;;;8.60;99.90;;;;;;5041586;28;20668;-80
2021/12/15 08:45:03;;;;;;;22.63;16.30;;;8.50;99.90;;;;;;5042756;28;20175;-80
2021/12/15 08:47:29;;;;;;;22.63;16.17;;;8.60;99.90;;;;;;5042819;28;20186;-80
2021/12/15 08:49:55;;;;;;;23.83;16.07;;;8.60;99.90;;;;;;5060163;28;20195;-80
2021/12/15 08:52:21;;;;;;;26.07;17.13;;;8.60;99.90;;;;;;5042672;28;20179;-80
2021/12/15 08:54:47;;;;;;;25.30;16.67;;;8.70;99.90;;;;;;5041747;28;20271;-81
2021/12/15 08:57:13;;;;;;;24.30;15.27;;;8.60;99.90;;;;;;5040241;28;20179;-81
2021/12/15 08:59:38;;;;;;;26.93;16.23;;;8.60;99.90;;;;;;5058510;28;20206;-81
2021/12/15 09:02:04;;;;;;;28.00;15.50;;;8.70;99.90;;;;;;5058608;28;20202;-81
2021/12/15 09:04:30;;;;;;;25.27;15.07;;;8.70;99.90;;;;;;5040071;28;20702;-81
2021/12/15 09:06:56;;;;;;;23.73;15.83;;;8.70;99.90;;;;;;5058479;28;20175;-81
2021/12/15 09:09:22;;;;;;;23.37;15.73;;;8.70;99.90;;;;;;5058327;28;20182;-81
2021/12/15 09:11:50;;;;;;;25.33;15.50;;;8.70;99.90;;;;;;5058616;28;20203;-81
2021/12/15 09:14:16;;;;;;;25.03;16.17;;;8.70;99.90;;;;;;5058912;28;20245;-81
2021/12/15 09:16:45;;;;;;;26.83;16.77;;;8.70;99.90;;;;;;5040531;28;20608;-81
2021/12/15 09:19:10;;;;;;;22.27;16.00;;;8.70;99.90;;;;;;5040805;28;20190;-81
2021/12/15 09:21:37;;;;;;;24.07;16.00;;;8.70;99.90;;;;;;5058950;28;20286;-81
2021/12/15 09:24:06;;;;;;;24.33;16.47;;;8.80;99.90;;;;;;5040861;28;20215;-81
2021/12/15 09:26:33;;;;;;;23.97;16.90;;;8.70;99.90;;;;;;5059508;28;20175;-81
2021/12/15 09:28:59;;;;;;;28.70;16.70;;;8.80;99.90;;;;;;5058718;28;20642;-81
2021/12/15 09:31:25;;;;;;;27.57;16.47;;;8.80;99.90;;;;;;5058560;28;20637;-81
2021/12/15 09:33:54;;;;;;;27.07;16.77;;;8.80;99.90;;;;;;5040549;28;20680;-81
2021/12/15 09:36:21;;;;;;;25.70;16.67;;;8.80;99.90;;;;;;5040906;28;20180;-81
2021/12/15 09:38:55;;;;;;;29.33;18.07;;;8.80;99.90;;;;;;5059146;28;20172;-81
2021/12/15 09:41:23;;;;;;;25.53;16.97;;;8.80;99.90;;;;;;5041826;28;20215;-81
2021/12/15 09:43:52;;;;;;;25.00;16.83;;;8.80;99.90;;;;;;5058554;28;20190;-81
2021/12/15 10:02:59;;;;;;;26.67;17.07;;;8.90;99.90;;;;;;4978528;28;20673;-80
2021/12/15 10:11:17;;;;;;;27.37;17.20;;;9.00;99.90;;;;;;5061062;28;20207;-81
2021/12/15 10:19:43;;;;;;;27.03;18.13;;;9.00;99.90;;;;;;4980308;28;20240;-81
2021/12/15 10:22:26;;;;;;;30.77;19.00;;;9.00;99.90;;;;;;5021664;28;20238;-81
2021/12/15 10:24:56;;;;;;;25.63;17.20;;;9.00;99.90;;;;;;5062747;28;20195;-81
2021/12/15 10:27:36;;;;;;;23.57;17.07;;;9.00;99.90;;;;;;5050227;28;20176;-81
2021/12/15 10:30:11;;;;;;;27.70;17.40;;;9.00;99.90;;;;;;5047729;28;20195;-81
2021/12/15 10:32:38;;;;;;;26.47;18.40;;;9.10;99.90;;;;;;5056384;28;20653;-81
2021/12/15 10:35:20;;;;;;;25.03;17.30;;;9.00;99.90;;;;;;5056770;28;20172;-81
2021/12/15 10:38:11;;;;;;;28.00;19.43;;;9.10;99.90;;;;;;5038212;28;20641;-81
2021/12/15 10:40:45;;;;;;;26.50;17.67;;;9.00;99.90;;;;;;5037417;28;20215;-81
2021/12/15 10:43:11;;;;;;;24.50;17.70;;;9.10;99.90;;;;;;5055500;28;20188;-81
2021/12/15 10:45:40;;;;;;;26.30;16.57;;;9.10;99.90;;;;;;5055756;28;20201;-81
2021/12/15 10:48:23;;;;;;;25.77;17.90;;;9.10;99.90;;;;;;5056084;28;20171;-81
2021/12/15 10:50:49;;;;;;;29.33;17.53;;;9.10;99.90;;;;;;5037398;28;20282;-81
2021/12/15 10:53:29;;;;;;;27.47;17.87;;;9.10;99.90;;;;;;5037998;28;20191;-81
2021/12/15 10:55:55;;;;;;;28.10;17.40;;;9.10;99.90;;;;;;5055940;28;20285;-80
2021/12/15 10:58:35;;;;;;;29.60;18.80;;;9.10;99.90;;;;;;5056195;28;20247;-81
2021/12/15 11:01:05;;;;;;;30.33;18.67;;;9.20;99.90;;;;;;5056423;28;20203;-81
2021/12/15 11:03:38;;;;;;;24.23;16.87;;;9.20;99.90;;;;;;5055666;28;20203;-81
2021/12/15 11:06:23;;;;;;;26.20;18.17;;;9.20;99.90;;;;;;5057117;28;20235;-81
2021/12/15 11:09:08;;;;;;;25.83;18.33;;;9.20;99.90;;;;;;5040949;28;20184;-81
2021/12/15 11:11:34;;;;;;;26.73;17.53;;;9.20;99.90;;;;;;5040815;28;20269;-81
2021/12/15 11:13:59;;;;;;;29.27;18.20;;;9.20;99.90;;;;;;5058301;28;20183;-81
2021/12/15 11:16:30;;;;;;;28.97;18.97;;;9.20;99.90;;;;;;5058778;28;20269;-81
2021/12/15 11:18:57;;;;;;;26.67;18.03;;;9.30;99.90;;;;;;5041609;28;20195;-82
2021/12/15 11:21:30;;;;;;;27.77;18.40;;;9.30;99.90;;;;;;5063044;28;20334;-82
2021/12/15 11:23:56;;;;;;;25.30;17.73;;;9.30;99.90;;;;;;5061845;28;20344;-81
2021/12/15 11:26:21;;;;;;;25.73;17.20;;;9.30;99.90;;;;;;5062622;28;20176;-81
2021/12/15 11:28:50;;;;;;;23.90;16.90;;;9.30;99.90;;;;;;5060628;28;20187;-81
2021/12/15 11:31:31;;;;;;;25.80;17.20;;;9.30;99.90;;;;;;5061543;28;20188;-81
2021/12/15 11:34:03;;;;;;;26.77;17.40;;;9.30;99.90;;;;;;5060604;28;20167;-81
2021/12/15 11:36:36;;;;;;;26.80;17.67;;;9.30;99.90;;;;;;5060730;28;20634;-81
2021/12/15 11:39:04;;;;;;;23.13;16.77;;;9.40;99.90;;;;;;5044576;28;20282;-81
2021/12/15 11:41:41;;;;;;;26.37;17.87;;;9.40;99.90;;;;;;5064340;23;20239;-78
2021/12/15 11:44:09;;;;;;;25.70;17.03;;;9.30;99.90;;;;;;5044891;28;20207;-79
2021/12/15 11:46:41;;;;;;;21.07;15.60;;;9.40;99.90;;;;;;5047934;28;20184;-79
2021/12/15 11:49:13;;;;;;;25.13;16.40;;;9.40;99.90;;;;;;5066857;28;20163;-79
2021/12/15 11:51:48;;;;;;;21.43;16.43;;;9.40;99.90;;;;;;5048971;28;20200;-81
2021/12/15 11:54:29;;;;;;;24.07;17.83;;;9.40;99.90;;;;;;5067272;28;20168;-79
2021/12/15 11:57:02;;;;;;;25.13;17.67;;;9.40;99.90;;;;;;5067628;28;20160;-81
2021/12/15 11:59:32;;;;;;;23.70;16.83;;;9.40;99.90;;;;;;5066975;28;20206;-80
2021/12/15 12:02:10;;;;;;;26.27;17.70;;;9.40;99.90;;;;;;5067006;28;20206;-80
2021/12/15 12:04:40;;;;;;;24.87;17.33;;;9.50;99.90;;;;;;5046372;28;20206;-79
2021/12/15 12:07:32;;;;;;;26.60;17.40;;;9.50;99.90;;;;;;5061174;28;20233;-79
2021/12/15 12:10:19;;;;;;;23.27;17.13;;;9.50;99.90;;;;;;5063660;28;20199;-79
2021/12/15 12:12:52;;;;;;;25.03;18.40;;;9.50;99.90;;;;;;5062580;28;20255;-80
2021/12/15 12:15:23;;;;;;;23.27;17.07;;;9.50;99.90;;;;;;5044863;28;20258;-79
2021/12/15 12:17:53;;;;;;;21.67;16.73;;;9.60;99.90;;;;;;5064418;28;20160;-79
2021/12/15 12:20:26;;;;;;;24.83;17.17;;;9.60;99.90;;;;;;5063106;28;20195;-79
2021/12/15 12:22:54;;;;;;;26.70;16.87;;;9.50;99.90;;;;;;5045328;28;20202;-79
2021/12/15 12:25:29;;;;;;;22.00;16.30;;;9.50;99.90;;;;;;5047872;28;20210;-80
2021/12/15 12:27:57;;;;;;;24.93;18.00;;;9.50;99.90;;;;;;5048991;28;20184;-80
2021/12/15 12:30:30;;;;;;;22.87;16.20;;;9.50;99.90;;;;;;5048336;28;20199;-80
2021/12/15 12:32:56;;;;;;;23.70;17.97;;;9.60;99.90;;;;;;5048765;28;20287;-79
2021/12/15 12:35:32;;;;;;;25.83;18.87;;;9.60;99.90;;;;;;5048908;28;20191;-80
2021/12/15 12:38:08;;;;;;;26.23;17.63;;;9.60;99.90;;;;;;5067804;28;20630;-79
2021/12/15 12:40:36;;;;;;;24.73;17.27;;;9.50;99.90;;;;;;5067256;28;20651;-79
2021/12/15 12:43:42;;;;;;;27.23;18.00;;;9.60;99.90;;;;;;5068402;28;20203;-80
2021/12/15 13:00:37;;;;;;;25.93;18.23;;;9.60;99.90;;;;;;5070203;28;20298;-80
2021/12/15 13:03:07;;;;;;;33.97;18.70;;;9.60;99.90;;;;;;5049366;28;20227;-79
2021/12/15 13:05:33;;;;;;;26.87;17.70;;;9.70;99.90;;;;;;5050683;28;20183;-79
2021/12/15 13:08:04;;;;;;;26.93;17.47;;;9.70;99.90;;;;;;5069479;28;20180;-79
2021/12/15 13:10:47;;;;;;;29.70;18.27;;;9.70;99.90;;;;;;5046653;28;20207;-79
2021/12/15 13:13:16;;;;;;;29.93;17.90;;;9.70;99.90;;;;;;5061837;28;20649;-78
2021/12/15 13:15:50;;;;;;;31.27;19.33;;;9.70;99.90;;;;;;5043151;28;20552;-79
2021/12/15 13:18:17;;;;;;;30.77;19.17;;;9.70;99.90;;;;;;5040207;28;20210;-77
2021/12/15 13:20:57;;;;;;;27.63;18.23;;;9.70;99.90;;;;;;5059400;28;20203;-78
2021/12/15 13:23:49;;;;;;;29.57;18.93;;;9.70;99.90;;;;;;5041292;28;20210;-78
2021/12/15 13:29:38;;;;;;;32.83;20.20;;;9.70;99.90;;;;;;5059836;28;20640;-78
2021/12/15 13:32:05;;;;;;;31.07;19.30;;;9.70;99.90;;;;;;5040399;28;20275;-78
2021/12/15 13:34:37;;;;;;;34.53;21.43;;;9.70;99.90;;;;;;5040488;28;20336;-78
2021/12/15 13:37:03;;;;;;;31.80;19.07;;;9.70;99.90;;;;;;5058611;28;20557;-78
2021/12/15 13:39:49;;;;;;;31.57;19.40;;;9.80;99.90;;;;;;5041799;28;20266;-78
2021/12/15 13:43:02;;;;;;;29.77;19.97;;;9.70;99.90;;;;;;5058966;28;20634;-78
2021/12/15 13:45:32;;;;;;;30.70;18.80;;;9.80;99.90;;;;;;5041029;28;20186;-78
2021/12/15 13:47:58;;;;;;;34.47;20.37;;;9.80;99.90;;;;;;5041697;28;20676;-78
2021/12/15 13:50:29;;;;;;;34.40;20.23;;;9.80;99.90;;;;;;5059043;28;20215;-78
2021/12/15 13:53:01;;;;;;;38.33;20.87;;;9.80;99.90;;;;;;5057451;28;20589;-78
2021/12/15 13:55:31;;;;;;;39.30;21.20;;;9.80;99.90;;;;;;5056692;28;20159;-77
2021/12/15 13:58:23;;;;;;;34.03;19.83;;;9.70;99.90;;;;;;5058539;28;20171;-78
2021/12/15 14:01:03;;;;;;;32.87;20.73;;;9.70;99.90;;;;;;5036278;28;20200;-78
2021/12/15 14:03:39;;;;;;;34.57;20.23;;;9.70;99.90;;;;;;5056842;28;20216;-77
2021/12/15 14:06:05;;;;;;;33.60;21.07;;;9.70;99.90;;;;;;5037575;28;20268;-77
2021/12/15 14:08:53;;;;;;;34.40;20.67;;;9.70;99.90;;;;;;5055200;28;20207;-77
2021/12/15 14:11:29;;;;;;;33.90;21.17;;;9.70;99.90;;;;;;5054807;28;20238;-77
2021/12/15 14:14:06;;;;;;;33.60;20.57;;;9.70;99.90;;;;;;5037317;28;20180;-77
2021/12/15 14:16:34;;;;;;;33.80;20.77;;;9.70;99.90;;;;;;5037158;28;20171;-77
2021/12/15 14:19:04;;;;;;;32.97;19.87;;;9.70;99.90;;;;;;5037466;28;20196;-77
2021/12/15 14:21:32;;;;;;;35.57;21.73;;;9.70;99.90;;;;;;5037341;28;20689;-77